Time;durP1;ratioP1;P1;durP2;ratioP2;P2;SDS_P1;SDS_P2;PMS_P1;PMS_P2;Temp;Humidity;BMP_temperature;BMP_pressure;BME280_temperature;BME280_humidity;BME280_pressure;Samples;Min_cycle;Max_cycle;Signal;HPM_P1;HPM_P2
2021/11/21 00:01:14;;;;;;;18.95;8.30;;;5.40;83.60;;;;;;5078418;28;20031;-73
2021/11/21 00:03:40;;;;;;;18.00;8.15;;;5.40;83.90;;;;;;5073665;28;20020;-73
2021/11/21 00:06:06;;;;;;;21.27;8.48;;;5.50;84.30;;;;;;5073563;28;20031;-71
2021/11/21 00:08:32;;;;;;;19.55;8.52;;;5.50;84.60;;;;;;5073454;28;20025;-71
2021/11/21 00:10:59;;;;;;;19.05;9.05;;;5.50;84.60;;;;;;5073552;28;20422;-71
2021/11/21 00:13:25;;;;;;;26.10;10.43;;;5.50;84.70;;;;;;5055488;28;20485;-71
2021/11/21 00:15:51;;;;;;;18.35;9.30;;;5.60;84.80;;;;;;5073340;28;20086;-71
2021/11/21 00:18:17;;;;;;;19.60;9.27;;;5.60;84.60;;;;;;5055087;28;20052;-72
2021/11/21 00:20:44;;;;;;;23.88;11.27;;;5.60;84.70;;;;;;5073264;28;20029;-72
2021/11/21 00:23:11;;;;;;;21.88;10.85;;;5.50;84.70;;;;;;5073552;28;20041;-71
2021/11/21 00:25:37;;;;;;;26.88;11.82;;;5.50;84.80;;;;;;5059686;28;20035;-71
2021/11/21 00:28:03;;;;;;;26.60;12.65;;;5.50;85.00;;;;;;5077737;28;20031;-72
2021/11/21 00:30:29;;;;;;;25.52;11.98;;;5.40;85.30;;;;;;5059123;28;20481;-70
2021/11/21 00:32:55;;;;;;;22.88;10.90;;;5.40;85.60;;;;;;5059264;28;20127;-71
2021/11/21 00:35:21;;;;;;;18.45;9.10;;;5.30;85.90;;;;;;5058955;28;20028;-71
2021/11/21 00:37:47;;;;;;;17.70;7.22;;;5.30;86.10;;;;;;5059869;28;20461;-73
2021/11/21 00:40:13;;;;;;;18.30;7.70;;;5.30;86.20;;;;;;5077156;28;20067;-73
2021/11/21 00:42:39;;;;;;;20.08;8.57;;;5.30;86.40;;;;;;5076996;28;20086;-72
2021/11/21 00:45:08;;;;;;;22.83;10.80;;;5.30;86.30;;;;;;5076907;28;20029;-72
2021/11/21 00:47:34;;;;;;;21.58;11.90;;;5.40;86.60;;;;;;5079454;28;20017;-72
2021/11/21 00:50:02;;;;;;;22.70;12.02;;;5.40;86.60;;;;;;5076970;28;20032;-72
2021/11/21 00:52:29;;;;;;;20.98;11.00;;;5.40;86.60;;;;;;5084888;28;20032;-72
2021/11/21 00:55:07;;;;;;;19.77;10.27;;;5.50;86.90;;;;;;5082011;28;20024;-72
2021/11/21 00:57:32;;;;;;;18.10;8.07;;;5.50;86.90;;;;;;5077085;28;20017;-73
2021/11/21 00:59:58;;;;;;;17.55;7.90;;;5.50;86.80;;;;;;5076578;28;20029;-72
2021/11/21 01:02:24;;;;;;;14.45;6.93;;;5.50;86.80;;;;;;5058576;28;20040;-71
2021/11/21 01:04:50;;;;;;;15.00;7.18;;;5.60;86.70;;;;;;5076670;28;20056;-72
2021/11/21 01:07:17;;;;;;;21.70;10.75;;;5.60;86.30;;;;;;5077095;28;20133;-72
2021/11/21 01:09:43;;;;;;;27.85;16.05;;;5.60;86.10;;;;;;5076372;28;20021;-73
2021/11/21 01:12:09;;;;;;;29.45;15.50;;;5.60;86.00;;;;;;5058496;28;20033;-73
2021/11/21 01:14:37;;;;;;;25.58;14.27;;;5.50;86.10;;;;;;5076494;28;20036;-73
2021/11/21 01:17:04;;;;;;;23.95;12.43;;;5.40;86.40;;;;;;5057990;28;20024;-73
2021/11/21 01:19:30;;;;;;;19.35;9.57;;;5.50;86.60;;;;;;5076490;28;20035;-72
2021/11/21 01:21:56;;;;;;;18.50;9.43;;;5.40;86.80;;;;;;5076427;28;20036;-73
2021/11/21 01:24:21;;;;;;;19.15;9.25;;;5.50;87.20;;;;;;5058647;28;20455;-73
2021/11/21 01:26:47;;;;;;;15.52;8.30;;;5.50;87.40;;;;;;5076127;28;20390;-71
2021/11/21 01:29:13;;;;;;;16.05;8.43;;;5.60;87.30;;;;;;5076111;28;20035;-72
2021/11/21 01:31:39;;;;;;;19.38;8.48;;;5.70;86.90;;;;;;5057906;28;20029;-73
2021/11/21 01:34:05;;;;;;;20.00;8.55;;;5.70;86.50;;;;;;5058333;28;20025;-72
2021/11/21 01:36:31;;;;;;;17.65;7.22;;;5.80;86.30;;;;;;5058217;28;20025;-73
2021/11/21 01:38:56;;;;;;;15.85;7.13;;;5.80;86.10;;;;;;5058046;28;20028;-73
2021/11/21 01:41:22;;;;;;;15.63;7.43;;;5.80;86.00;;;;;;5075869;28;20040;-72
2021/11/21 01:43:48;;;;;;;15.70;7.63;;;5.90;85.90;;;;;;5058026;28;20025;-72
2021/11/21 01:46:14;;;;;;;17.20;7.47;;;5.90;85.50;;;;;;5078182;28;20081;-71
2021/11/21 01:48:40;;;;;;;17.50;7.05;;;5.90;85.50;;;;;;5083787;28;20027;-72
2021/11/21 01:51:11;;;;;;;17.67;7.75;;;5.90;85.50;;;;;;5078401;28;20021;-72
2021/11/21 01:53:37;;;;;;;16.58;7.50;;;5.90;85.60;;;;;;5057930;28;20031;-72
2021/11/21 01:56:04;;;;;;;16.63;8.55;;;5.90;85.50;;;;;;5059372;28;20020;-72
2021/11/21 01:58:30;;;;;;;18.95;10.38;;;5.90;85.40;;;;;;5074321;28;20030;-72
2021/11/21 02:00:56;;;;;;;19.30;11.10;;;5.80;85.20;;;;;;5057356;28;20549;-73
2021/11/21 02:03:22;;;;;;;23.48;11.57;;;5.80;85.50;;;;;;5057666;28;20066;-73
2021/11/21 02:05:48;;;;;;;19.48;10.10;;;5.90;85.60;;;;;;5075793;28;20463;-73
2021/11/21 02:08:16;;;;;;;17.27;10.45;;;5.90;85.50;;;;;;5075357;28;20024;-72
2021/11/21 02:10:42;;;;;;;22.02;12.35;;;5.90;85.40;;;;;;5057232;28;20036;-72
2021/11/21 02:13:09;;;;;;;19.95;11.52;;;5.90;85.20;;;;;;5075763;28;20484;-73
2021/11/21 02:15:37;;;;;;;20.70;10.77;;;6.00;85.40;;;;;;5075262;28;20032;-73
2021/11/21 02:18:04;;;;;;;18.27;9.43;;;6.00;85.40;;;;;;5075155;28;20162;-78
2021/11/21 02:20:33;;;;;;;20.92;9.85;;;6.00;85.60;;;;;;5057570;28;20064;-81
2021/11/21 02:23:03;;;;;;;19.83;8.05;;;6.00;85.70;;;;;;5057313;28;20067;-81
2021/11/21 02:25:29;;;;;;;15.88;8.02;;;6.00;85.80;;;;;;5075096;28;20024;-82
2021/11/21 02:27:55;;;;;;;17.60;7.72;;;6.10;86.00;;;;;;5075091;28;20035;-81
2021/11/21 02:30:21;;;;;;;20.63;10.95;;;6.10;86.30;;;;;;5075164;28;20032;-81
2021/11/21 02:32:50;;;;;;;18.08;12.15;;;6.10;86.20;;;;;;5057535;28;20031;-80
2021/11/21 02:35:17;;;;;;;24.15;12.20;;;6.10;86.10;;;;;;5057087;28;20475;-81
2021/11/21 02:37:43;;;;;;;23.38;12.57;;;6.10;86.10;;;;;;5075135;28;20031;-80
2021/11/21 02:40:12;;;;;;;17.23;8.77;;;6.10;85.80;;;;;;5067922;28;20020;-81
2021/11/21 02:42:39;;;;;;;18.48;8.90;;;6.00;86.00;;;;;;5103375;28;20390;-80
2021/11/21 02:45:13;;;;;;;17.90;9.27;;;6.00;86.20;;;;;;5108848;28;20381;-80
2021/11/21 02:47:39;;;;;;;21.17;9.20;;;6.00;86.40;;;;;;5097830;28;20078;-79
2021/11/21 02:50:13;;;;;;;21.77;9.05;;;6.00;86.70;;;;;;5095272;28;20031;-79
2021/11/21 02:52:39;;;;;;;20.45;10.05;;;6.10;86.80;;;;;;5093738;28;20066;-79
2021/11/21 02:55:05;;;;;;;16.88;9.93;;;6.00;86.80;;;;;;5095150;28;20060;-81
2021/11/21 02:57:31;;;;;;;19.75;11.18;;;6.10;87.00;;;;;;5093765;28;20038;-81
2021/11/21 02:59:57;;;;;;;18.48;10.82;;;6.10;87.20;;;;;;5094723;28;20116;-81
2021/11/21 03:02:23;;;;;;;17.83;11.10;;;6.10;87.50;;;;;;5093443;28;20039;-79
2021/11/21 03:04:51;;;;;;;18.75;9.98;;;6.10;87.90;;;;;;5093417;28;20020;-81
2021/11/21 03:07:18;;;;;;;18.55;9.05;;;6.10;88.30;;;;;;5094634;28;20024;-80
2021/11/21 03:09:47;;;;;;;15.90;7.75;;;6.20;88.20;;;;;;5094761;28;20031;-79
2021/11/21 03:12:14;;;;;;;16.90;8.40;;;6.20;88.40;;;;;;5093863;28;20028;-79
2021/11/21 03:14:39;;;;;;;19.33;9.25;;;6.10;88.30;;;;;;5093434;28;20028;-80
2021/11/21 03:17:06;;;;;;;16.13;8.88;;;6.10;88.70;;;;;;5095170;28;20024;-80
2021/11/21 03:19:32;;;;;;;22.08;9.65;;;6.10;89.00;;;;;;5094713;28;20036;-81
2021/11/21 03:21:59;;;;;;;20.08;8.80;;;6.10;89.70;;;;;;5088837;28;20036;-80
2021/11/21 03:24:26;;;;;;;18.15;8.35;;;6.10;90.10;;;;;;5094341;28;20081;-79
2021/11/21 03:26:51;;;;;;;16.92;9.35;;;6.10;90.20;;;;;;5093249;28;20027;-80
2021/11/21 03:29:17;;;;;;;23.73;9.00;;;6.10;90.30;;;;;;5093502;28;20378;-81
2021/11/21 03:31:43;;;;;;;18.30;8.88;;;6.20;90.30;;;;;;5093256;28;20034;-80
2021/11/21 03:34:09;;;;;;;19.88;10.25;;;6.20;90.30;;;;;;5094301;28;20028;-81
2021/11/21 03:36:35;;;;;;;26.70;14.20;;;6.20;90.40;;;;;;5094716;28;20039;-80
2021/11/21 03:39:02;;;;;;;29.25;15.02;;;6.20;90.50;;;;;;5108646;28;20105;-80
2021/11/21 03:41:29;;;;;;;21.92;12.02;;;6.20;90.50;;;;;;5107650;28;20032;-80
2021/11/21 03:43:55;;;;;;;26.98;13.70;;;6.20;90.70;;;;;;5095513;28;20440;-81
2021/11/21 03:46:22;;;;;;;24.77;13.00;;;6.20;90.60;;;;;;5093082;28;20131;-79
2021/11/21 03:48:48;;;;;;;26.20;14.55;;;6.30;90.70;;;;;;5094270;28;20019;-79
2021/11/21 03:51:14;;;;;;;27.05;13.18;;;6.30;90.80;;;;;;5093907;28;20020;-78
2021/11/21 03:53:40;;;;;;;24.92;13.30;;;6.30;90.90;;;;;;5093805;28;20454;-79
2021/11/21 03:56:05;;;;;;;22.73;12.93;;;6.30;91.10;;;;;;5094066;28;20073;-78
2021/11/21 03:58:31;;;;;;;38.20;20.42;;;6.30;91.20;;;;;;5093937;28;20414;-80
2021/11/21 04:00:58;;;;;;;59.67;29.05;;;6.30;91.40;;;;;;5093907;28;20031;-80
2021/11/21 04:03:25;;;;;;;60.35;30.65;;;6.20;91.50;;;;;;5093922;28;20082;-80
2021/11/21 04:05:51;;;;;;;46.25;25.38;;;6.30;91.70;;;;;;5093926;28;20021;-78
2021/11/21 04:08:16;;;;;;;43.83;22.08;;;6.30;91.70;;;;;;5093296;28;20459;-79
2021/11/21 04:10:42;;;;;;;32.05;17.48;;;6.30;91.80;;;;;;5093059;28;20462;-79
2021/11/21 04:13:09;;;;;;;27.08;14.77;;;6.30;91.90;;;;;;5093572;28;20028;-79
2021/11/21 04:15:35;;;;;;;28.42;16.08;;;6.30;92.00;;;;;;5093999;28;20494;-80
2021/11/21 04:18:01;;;;;;;28.25;13.38;;;6.40;92.10;;;;;;5093791;28;20036;-79
2021/11/21 04:20:28;;;;;;;24.27;13.25;;;6.40;91.90;;;;;;5092288;28;20039;-79
2021/11/21 04:22:54;;;;;;;23.65;12.60;;;6.40;92.00;;;;;;5093850;28;20089;-79
2021/11/21 04:25:20;;;;;;;22.15;12.63;;;6.40;92.10;;;;;;5093518;28;20451;-78
2021/11/21 04:27:45;;;;;;;19.05;10.77;;;6.40;92.30;;;;;;5092546;28;20028;-79
2021/11/21 04:30:14;;;;;;;19.70;10.77;;;6.40;92.30;;;;;;5092416;28;20066;-80
2021/11/21 04:32:41;;;;;;;19.67;10.45;;;6.40;92.40;;;;;;5097576;28;20035;-79
2021/11/21 04:35:12;;;;;;;19.92;10.25;;;6.50;92.40;;;;;;5099421;28;20024;-80
2021/11/21 04:37:38;;;;;;;18.00;9.73;;;6.50;92.40;;;;;;5100940;28;20115;-80
2021/11/21 04:40:07;;;;;;;17.23;10.23;;;6.60;92.40;;;;;;5094525;28;20060;-81
2021/11/21 04:42:32;;;;;;;20.02;10.68;;;6.60;92.40;;;;;;5093745;28;20085;-78
2021/11/21 04:44:58;;;;;;;19.48;11.02;;;6.60;92.30;;;;;;5093752;28;20028;-79
2021/11/21 04:47:24;;;;;;;20.73;11.38;;;6.70;92.30;;;;;;5093501;28;20039;-80
2021/11/21 04:49:51;;;;;;;22.23;10.88;;;6.70;92.30;;;;;;5083136;28;20028;-78
2021/11/21 04:52:16;;;;;;;19.98;10.60;;;6.80;92.30;;;;;;5072515;28;20020;-80
2021/11/21 04:54:42;;;;;;;17.83;10.38;;;6.80;92.10;;;;;;5070886;28;20385;-80
2021/11/21 04:57:08;;;;;;;21.17;11.27;;;6.80;92.10;;;;;;5072085;28;20109;-80
2021/11/21 04:59:35;;;;;;;19.55;11.15;;;6.90;92.00;;;;;;5072429;28;20021;-80
2021/11/21 05:02:02;;;;;;;18.77;11.18;;;6.90;92.00;;;;;;5072064;28;20099;-79
2021/11/21 05:04:28;;;;;;;19.42;12.30;;;6.90;91.90;;;;;;5072402;28;20031;-79
2021/11/21 05:06:54;;;;;;;22.88;11.75;;;6.90;91.90;;;;;;5071408;28;20115;-80
2021/11/21 05:09:20;;;;;;;20.55;12.18;;;6.90;91.80;;;;;;5072765;28;20021;-80
2021/11/21 05:11:46;;;;;;;16.65;10.82;;;6.90;91.80;;;;;;5080432;28;20040;-80
2021/11/21 05:14:17;;;;;;;18.35;12.05;;;6.90;91.80;;;;;;5074219;28;20046;-79
2021/11/21 05:16:43;;;;;;;18.30;11.95;;;6.90;91.90;;;;;;5074197;28;20052;-81
2021/11/21 05:19:09;;;;;;;18.70;12.43;;;6.80;92.00;;;;;;5084594;28;20521;-80
2021/11/21 05:21:34;;;;;;;19.55;12.88;;;6.80;92.30;;;;;;5078721;28;20382;-80
2021/11/21 05:24:01;;;;;;;19.40;12.68;;;6.90;92.40;;;;;;5078459;28;20028;-76
2021/11/21 05:26:27;;;;;;;17.23;11.50;;;6.90;92.50;;;;;;5065052;28;20039;-77
2021/11/21 05:28:53;;;;;;;18.98;11.40;;;6.90;92.50;;;;;;5095554;28;20088;-76
2021/11/21 05:31:20;;;;;;;19.90;12.70;;;6.90;92.60;;;;;;5085904;28;20435;-74
2021/11/21 05:33:46;;;;;;;19.48;12.25;;;6.90;92.60;;;;;;5076853;28;20020;-74
2021/11/21 05:36:12;;;;;;;20.63;13.68;;;6.90;92.70;;;;;;5088272;28;20021;-73
2021/11/21 05:38:38;;;;;;;22.50;14.10;;;7.00;92.90;;;;;;5094635;28;20028;-73
2021/11/21 05:41:04;;;;;;;23.75;16.55;;;7.00;93.00;;;;;;5089850;28;20069;-74
2021/11/21 05:43:30;;;;;;;27.52;18.00;;;7.00;93.20;;;;;;5085166;28;20032;-74
2021/11/21 05:45:56;;;;;;;30.10;20.85;;;7.00;93.40;;;;;;5082803;28;20036;-74
2021/11/21 05:48:22;;;;;;;29.27;21.50;;;7.10;93.60;;;;;;5074817;28;20028;-73
2021/11/21 05:50:48;;;;;;;27.30;21.10;;;7.10;93.60;;;;;;5076036;28;20028;-74
2021/11/21 05:53:14;;;;;;;26.75;20.00;;;7.20;93.80;;;;;;5089347;28;20541;-73
2021/11/21 05:55:40;;;;;;;24.00;18.42;;;7.20;94.00;;;;;;5069094;28;20020;-74
2021/11/21 05:58:05;;;;;;;25.63;18.02;;;7.30;94.00;;;;;;5077207;28;20455;-74
2021/11/21 06:00:31;;;;;;;23.63;17.63;;;7.30;93.90;;;;;;5074987;28;20021;-74
2021/11/21 06:02:59;;;;;;;20.67;15.52;;;7.30;94.20;;;;;;5075092;28;20063;-74
2021/11/21 06:05:25;;;;;;;22.10;16.20;;;7.40;94.30;;;;;;5085376;28;20035;-74
2021/11/21 06:07:51;;;;;;;20.02;16.25;;;7.50;94.60;;;;;;5061121;28;20110;-74
2021/11/21 06:10:17;;;;;;;21.40;15.52;;;7.60;94.40;;;;;;5075199;28;20102;-74
2021/11/21 06:12:43;;;;;;;21.05;15.40;;;7.60;94.40;;;;;;5072667;28;20127;-74
2021/11/21 06:15:10;;;;;;;18.00;13.88;;;7.70;94.40;;;;;;5077559;28;20036;-75
2021/11/21 06:17:36;;;;;;;18.15;13.10;;;7.80;94.20;;;;;;5077558;28;20048;-80
2021/11/21 06:20:04;;;;;;;19.52;14.32;;;7.90;93.70;;;;;;5077677;28;20028;-80
2021/11/21 06:22:30;;;;;;;19.38;14.48;;;8.00;93.80;;;;;;5083779;28;20542;-79
2021/11/21 06:24:56;;;;;;;22.30;14.93;;;8.00;93.30;;;;;;5086665;28;20111;-79
2021/11/21 06:27:22;;;;;;;20.88;15.88;;;8.10;93.30;;;;;;5101031;28;20066;-79
2021/11/21 06:29:48;;;;;;;21.30;14.70;;;8.10;93.40;;;;;;5099462;28;20063;-82
2021/11/21 06:32:14;;;;;;;21.67;16.67;;;8.20;93.40;;;;;;5095654;28;20039;-80
2021/11/21 06:34:40;;;;;;;25.75;18.13;;;8.20;93.40;;;;;;5077191;28;20024;-85
2021/11/21 06:37:07;;;;;;;21.45;17.23;;;8.20;93.30;;;;;;5091741;28;20450;-80
2021/11/21 06:39:35;;;;;;;20.90;16.08;;;8.20;93.30;;;;;;5074625;28;20020;-79
2021/11/21 06:42:01;;;;;;;20.48;14.98;;;8.30;93.40;;;;;;5069646;28;20071;-81
2021/11/21 06:44:26;;;;;;;19.02;15.15;;;8.30;93.40;;;;;;5074304;28;20052;-82
2021/11/21 06:46:52;;;;;;;19.73;14.70;;;8.30;93.50;;;;;;5074105;28;20016;-81
2021/11/21 06:49:18;;;;;;;22.65;14.43;;;8.40;93.40;;;;;;5072677;28;20020;-81
2021/11/21 06:51:44;;;;;;;21.30;15.60;;;8.40;93.40;;;;;;5073567;28;20103;-80
2021/11/21 06:54:11;;;;;;;19.58;14.38;;;8.50;93.50;;;;;;5072287;28;20523;-80
2021/11/21 06:56:37;;;;;;;20.48;14.98;;;8.50;93.70;;;;;;5073829;28;20494;-81
2021/11/21 06:59:04;;;;;;;20.63;14.68;;;8.60;93.80;;;;;;5072707;28;20383;-79
2021/11/21 07:01:30;;;;;;;18.75;14.20;;;8.80;93.80;;;;;;5072312;28;20027;-81
2021/11/21 07:03:56;;;;;;;20.45;14.82;;;9.00;93.40;;;;;;5074508;28;20071;-81
2021/11/21 07:06:29;;;;;;;18.90;15.10;;;9.10;92.90;;;;;;5084548;28;20032;-80
2021/11/21 07:08:55;;;;;;;19.58;14.43;;;9.30;92.30;;;;;;5068295;28;20522;-80
2021/11/21 07:11:21;;;;;;;18.83;14.70;;;9.40;91.70;;;;;;5087021;28;20021;-80
2021/11/21 07:13:47;;;;;;;19.40;14.38;;;9.40;91.20;;;;;;5093295;28;20024;-80
2021/11/21 07:16:13;;;;;;;17.05;13.93;;;9.40;90.90;;;;;;5091343;28;20459;-79
2021/11/21 07:18:38;;;;;;;19.90;14.00;;;9.40;91.00;;;;;;5099922;28;20071;-79
2021/11/21 07:21:04;;;;;;;20.13;14.88;;;9.40;90.80;;;;;;5101329;28;20056;-79
2021/11/21 07:23:30;;;;;;;21.27;15.20;;;9.40;90.80;;;;;;5096537;28;20036;-79
2021/11/21 07:25:56;;;;;;;20.63;16.17;;;9.40;90.80;;;;;;5091983;28;20119;-78
2021/11/21 07:28:21;;;;;;;20.17;14.52;;;9.50;90.90;;;;;;5091756;28;20020;-79
2021/11/21 07:30:47;;;;;;;21.25;14.95;;;9.50;90.80;;;;;;5079511;28;20390;-81
2021/11/21 07:33:13;;;;;;;20.30;15.10;;;9.60;90.60;;;;;;5067202;28;20020;-78
2021/11/21 07:35:39;;;;;;;20.92;16.65;;;9.60;90.30;;;;;;5081170;28;20029;-80
2021/11/21 07:38:05;;;;;;;21.15;16.48;;;9.60;90.20;;;;;;5078379;28;20033;-79
2021/11/21 07:40:30;;;;;;;18.40;15.18;;;9.60;90.30;;;;;;5067363;28;20147;-79
2021/11/21 07:42:56;;;;;;;18.92;14.50;;;9.60;89.90;;;;;;5087657;28;20024;-79
2021/11/21 07:45:22;;;;;;;19.13;16.00;;;9.60;90.10;;;;;;5067105;28;20107;-80
2021/11/21 07:47:48;;;;;;;20.58;15.90;;;9.70;90.10;;;;;;5076755;28;20027;-79
2021/11/21 07:50:14;;;;;;;18.02;14.57;;;9.80;90.10;;;;;;5065405;28;20111;-81
2021/11/21 07:52:41;;;;;;;20.13;15.93;;;9.90;89.50;;;;;;5092008;28;20169;-78
2021/11/21 07:55:07;;;;;;;17.35;14.27;;;10.00;89.10;;;;;;5066974;28;20078;-79
2021/11/21 07:57:34;;;;;;;18.23;14.88;;;10.10;89.00;;;;;;5073608;28;20056;-82
2021/11/21 08:00:00;;;;;;;18.33;15.32;;;10.20;88.10;;;;;;5067593;28;20024;-89
2021/11/21 08:02:25;;;;;;;19.75;15.52;;;10.20;87.60;;;;;;5074752;28;20436;-87
2021/11/21 08:04:51;;;;;;;19.05;15.15;;;10.20;87.70;;;;;;5089946;28;20061;-87
2021/11/21 08:07:17;;;;;;;19.35;15.05;;;10.40;87.50;;;;;;5063061;28;20042;-85
2021/11/21 08:09:43;;;;;;;21.77;16.48;;;10.40;87.30;;;;;;5074010;28;20631;-85
2021/11/21 08:12:09;;;;;;;19.20;14.32;;;10.70;87.60;;;;;;5062862;28;20032;-85
2021/11/21 08:14:37;;;;;;;19.13;14.13;;;11.00;86.80;;;;;;5096053;28;20028;-86
2021/11/21 08:17:03;;;;;;;17.02;13.95;;;11.30;85.30;;;;;;5075754;28;20028;-85
2021/11/21 08:19:29;;;;;;;18.45;14.40;;;11.50;84.20;;;;;;5064675;28;20058;-86
2021/11/21 08:21:54;;;;;;;17.13;13.73;;;11.60;82.30;;;;;;5086738;28;20533;-85
2021/11/21 08:24:20;;;;;;;17.38;14.15;;;11.60;81.80;;;;;;5098032;28;20036;-81
2021/11/21 08:26:46;;;;;;;19.75;14.55;;;11.70;81.20;;;;;;5085906;28;20020;-87
2021/11/21 08:29:12;;;;;;;20.08;14.65;;;11.60;80.90;;;;;;5074285;28;20056;-74
2021/11/21 08:31:41;;;;;;;18.48;14.02;;;11.60;81.00;;;;;;5091786;28;20111;-84
2021/11/21 08:34:08;;;;;;;22.40;15.32;;;11.50;80.80;;;;;;5063048;28;20016;-85
2021/11/21 08:36:35;;;;;;;22.05;16.00;;;11.40;81.30;;;;;;5080819;28;20111;-80
2021/11/21 08:39:02;;;;;;;22.75;15.50;;;11.30;81.40;;;;;;5061794;28;20032;-84
2021/11/21 08:41:28;;;;;;;19.67;15.20;;;11.30;81.80;;;;;;5080847;28;20413;-81
2021/11/21 08:43:56;;;;;;;19.50;15.55;;;11.30;81.80;;;;;;5073808;28;20021;-85
2021/11/21 08:46:22;;;;;;;20.02;15.77;;;11.20;82.20;;;;;;5078229;28;20027;-88
2021/11/21 08:48:48;;;;;;;22.35;15.55;;;11.10;82.40;;;;;;5094338;28;20062;-83
2021/11/21 08:51:14;;;;;;;21.35;15.43;;;11.10;82.80;;;;;;5067386;28;20020;-85
2021/11/21 08:53:44;;;;;;;18.25;15.05;;;11.00;83.10;;;;;;5064407;28;20029;-83
2021/11/21 08:56:11;;;;;;;20.65;15.20;;;11.00;83.20;;;;;;5076873;28;20443;-83
2021/11/21 08:58:37;;;;;;;21.90;16.02;;;10.90;83.50;;;;;;5077000;28;20044;-83
2021/11/21 09:01:03;;;;;;;20.45;15.65;;;10.90;83.80;;;;;;5065972;28;20454;-82
2021/11/21 09:03:30;;;;;;;18.73;14.60;;;10.90;83.90;;;;;;5078450;28;20032;-82
2021/11/21 09:05:56;;;;;;;19.65;14.68;;;10.90;84.10;;;;;;5080092;28;20369;-81
2021/11/21 09:08:24;;;;;;;19.15;15.48;;;10.80;84.40;;;;;;5087626;28;20027;-83
2021/11/21 09:10:51;;;;;;;25.95;14.00;;;10.90;84.60;;;;;;5072118;28;20054;-84
2021/11/21 09:13:17;;;;;;;19.10;14.02;;;10.90;84.70;;;;;;5072949;28;20028;-86
2021/11/21 09:15:42;;;;;;;18.90;13.55;;;11.00;84.60;;;;;;5081426;28;20027;-80
2021/11/21 09:18:08;;;;;;;16.17;13.07;;;11.10;84.60;;;;;;5086448;28;20048;-83
2021/11/21 09:20:34;;;;;;;18.00;13.70;;;11.40;84.20;;;;;;5076674;28;20486;-84
2021/11/21 09:23:03;;;;;;;18.65;13.90;;;11.50;83.30;;;;;;5069210;28;20036;-83
2021/11/21 09:25:29;;;;;;;17.40;14.00;;;11.70;82.40;;;;;;5072060;28;20454;-88
2021/11/21 09:27:55;;;;;;;17.17;13.38;;;11.70;81.60;;;;;;5076073;28;20097;-82
2021/11/21 09:30:22;;;;;;;20.27;14.27;;;11.80;81.00;;;;;;5071605;28;20144;-83
2021/11/21 09:32:49;;;;;;;22.17;17.42;;;11.90;81.10;;;;;;5066227;28;20370;-80
2021/11/21 09:35:15;;;;;;;20.13;15.82;;;11.80;80.10;;;;;;5063583;28;20121;-83
2021/11/21 09:37:41;;;;;;;30.15;21.67;;;11.70;80.30;;;;;;5082450;28;20092;-81
2021/11/21 09:40:10;;;;;;;29.33;20.55;;;11.60;80.50;;;;;;5084958;28;20025;-83
2021/11/21 09:42:36;;;;;;;33.10;21.23;;;11.40;81.30;;;;;;5076044;28;20044;-85
2021/11/21 09:45:06;;;;;;;34.67;22.92;;;11.20;81.20;;;;;;5071471;28;20024;-83
2021/11/21 09:47:32;;;;;;;33.25;22.60;;;11.10;82.00;;;;;;5088833;28;20023;-87
2021/11/21 09:50:04;;;;;;;32.72;21.08;;;11.00;82.30;;;;;;5069873;28;20466;-82
2021/11/21 09:52:30;;;;;;;42.35;25.80;;;10.90;82.80;;;;;;5063828;28;20028;-82
2021/11/21 09:54:56;;;;;;;54.97;30.70;;;10.80;83.40;;;;;;5093509;28;20027;-82
2021/11/21 09:57:22;;;;;;;56.20;32.75;;;10.70;83.90;;;;;;5077742;28;20382;-81
2021/11/21 10:00:02;;;;;;;84.35;44.45;;;10.60;84.60;;;;;;5076413;28;20490;-81
2021/11/21 10:02:31;;;;;;;92.18;48.10;;;10.60;85.40;;;;;;5075777;28;20060;-81
2021/11/21 10:04:59;;;;;;;85.18;43.83;;;10.60;85.60;;;;;;5086562;28;20032;-81
2021/11/21 10:07:28;;;;;;;57.47;34.10;;;10.50;85.60;;;;;;5073199;28;20055;-81
2021/11/21 10:09:56;;;;;;;81.57;41.03;;;10.50;86.00;;;;;;5082951;28;20106;-80
2021/11/21 10:12:32;;;;;;;65.70;36.35;;;10.50;86.10;;;;;;5082164;28;20028;-81
2021/11/21 10:14:59;;;;;;;63.47;36.80;;;10.50;86.60;;;;;;5073026;28;20452;-83
2021/11/21 10:17:26;;;;;;;53.28;30.10;;;10.50;86.70;;;;;;5072764;28;20036;-81
2021/11/21 10:20:07;;;;;;;64.68;36.03;;;10.60;86.60;;;;;;5083825;28;20031;-76
2021/11/21 10:22:52;;;;;;;48.17;28.42;;;10.60;86.40;;;;;;5077286;28;20036;-82
2021/11/21 10:25:33;;;;;;;35.47;24.67;;;10.60;86.70;;;;;;5077299;28;20031;-79
2021/11/21 10:28:23;;;;;;;20.85;16.65;;;10.70;86.90;;;;;;5077365;28;20028;-77
2021/11/21 10:31:07;;;;;;;20.83;17.10;;;10.80;86.60;;;;;;5077354;28;20028;-80
2021/11/21 10:33:35;;;;;;;17.42;14.45;;;10.80;86.50;;;;;;5077206;28;20031;-79
2021/11/21 10:36:11;;;;;;;19.02;14.20;;;10.90;86.10;;;;;;5095154;28;20028;-81
2021/11/21 10:38:39;;;;;;;;;;;11.00;85.90;;;;;;5077867;28;20046;-88
2021/11/21 10:41:10;;;;;;;19.50;15.00;;;11.00;85.60;;;;;;5076825;28;19904;-86
2021/11/21 10:43:58;;;;;;;17.63;13.50;;;11.00;85.30;;;;;;5076900;28;20082;-86
2021/11/21 10:46:30;;;;;;;16.70;12.25;;;11.10;84.90;;;;;;5073546;28;20078;-86
2021/11/21 10:49:24;;;;;;;15.82;10.52;;;11.20;83.90;;;;;;5075769;28;20081;-86
2021/11/21 10:52:06;;;;;;;16.40;11.55;;;11.30;83.10;;;;;;5095604;28;20036;-86
2021/11/21 10:54:52;;;;;;;14.13;11.07;;;11.40;82.60;;;;;;5079082;28;20048;-84
2021/11/21 10:57:29;;;;;;;14.18;10.35;;;11.50;82.10;;;;;;5084384;28;20077;-85
2021/11/21 11:00:00;;;;;;;14.77;10.93;;;11.50;81.40;;;;;;5107866;28;20024;-85
2021/11/21 11:02:31;;;;;;;14.10;10.80;;;11.60;80.90;;;;;;5098877;28;20536;-85
2021/11/21 11:05:00;;;;;;;13.27;9.73;;;11.60;80.30;;;;;;5077139;28;20383;-85
2021/11/21 11:07:27;;;;;;;15.30;11.07;;;11.70;80.00;;;;;;5076810;28;20038;-85
2021/11/21 11:09:54;;;;;;;14.00;10.38;;;11.70;79.70;;;;;;5076994;28;20027;-88
2021/11/21 11:12:22;;;;;;;18.65;11.70;;;11.70;79.40;;;;;;5083879;28;20042;-87
2021/11/21 11:14:48;;;;;;;19.02;12.18;;;11.70;79.40;;;;;;5102062;28;20032;-86
2021/11/21 11:17:14;;;;;;;17.20;11.25;;;11.70;79.30;;;;;;5085807;28;20423;-88
2021/11/21 11:19:40;;;;;;;14.98;11.48;;;11.80;79.10;;;;;;5086226;28;20028;-87
2021/11/21 11:22:07;;;;;;;15.45;10.98;;;11.70;79.20;;;;;;5102861;28;20035;-87
2021/11/21 11:24:41;;;;;;;16.95;11.02;;;11.70;79.20;;;;;;5083597;28;20020;-88
2021/11/21 11:27:22;;;;;;;16.27;11.20;;;11.70;79.10;;;;;;5101508;28;20496;-86
2021/11/21 11:29:50;;;;;;;16.25;11.07;;;11.70;79.00;;;;;;5079058;28;20055;-87
2021/11/21 11:32:31;;;;;;;15.32;10.88;;;11.70;79.00;;;;;;5098526;28;20047;-85
2021/11/21 11:34:57;;;;;;;18.23;11.80;;;11.70;78.90;;;;;;5082174;28;20024;-85
2021/11/21 11:37:45;;;;;;;15.25;11.13;;;11.70;78.80;;;;;;5100437;28;20024;-88
2021/11/21 11:40:55;;;;;;;16.73;11.45;;;11.60;78.80;;;;;;5083395;28;20020;-87
2021/11/21 11:43:27;;;;;;;15.75;11.77;;;11.60;79.00;;;;;;5073994;28;20047;-87
2021/11/21 11:45:57;;;;;;;14.20;11.27;;;11.60;79.00;;;;;;5079587;28;20024;-89
2021/11/21 11:48:31;;;;;;;15.68;11.38;;;11.50;79.00;;;;;;5096647;28;20478;-86
2021/11/21 11:50:58;;;;;;;16.42;12.35;;;11.50;79.10;;;;;;5078038;28;20028;-87
2021/11/21 11:53:45;;;;;;;16.30;11.95;;;11.50;79.20;;;;;;5084470;28;20032;-85
2021/11/21 11:56:20;;;;;;;16.33;12.32;;;11.50;79.30;;;;;;5105135;28;20024;-85
2021/11/21 11:58:46;;;;;;;15.57;10.93;;;11.50;80.10;;;;;;5077810;28;20028;-87
2021/11/21 12:01:13;;;;;;;13.68;10.95;;;11.50;79.60;;;;;;5094110;28;20020;-86
2021/11/21 12:03:42;;;;;;;15.35;12.20;;;11.50;79.40;;;;;;5093624;28;20036;-86
2021/11/21 12:06:08;;;;;;;14.98;11.75;;;11.50;79.40;;;;;;5094416;28;20056;-86
2021/11/21 12:08:34;;;;;;;16.40;12.10;;;11.50;79.40;;;;;;5076358;28;20047;-85
2021/11/21 12:10:59;;;;;;;14.27;11.18;;;11.50;79.40;;;;;;5096426;28;20024;-86
2021/11/21 12:13:41;;;;;;;14.38;11.00;;;11.60;79.40;;;;;;5096386;28;20036;-85
2021/11/21 12:16:15;;;;;;;14.77;10.80;;;11.60;79.20;;;;;;5078724;28;20028;-87
2021/11/21 12:19:00;;;;;;;15.18;10.60;;;11.60;79.20;;;;;;5094279;28;20086;-87
2021/11/21 12:21:54;;;;;;;14.77;10.35;;;11.60;79.20;;;;;;5098534;28;20031;-84
2021/11/21 12:24:25;;;;;;;14.30;11.20;;;11.60;79.30;;;;;;5096060;28;20043;-86
2021/11/21 12:26:52;;;;;;;15.20;10.93;;;11.60;79.20;;;;;;5080251;28;20024;-87
2021/11/21 12:29:22;;;;;;;16.20;11.55;;;11.60;79.10;;;;;;5080322;28;20404;-86
2021/11/21 12:31:48;;;;;;;16.75;12.27;;;11.60;78.90;;;;;;5098897;28;20034;-88
2021/11/21 12:34:26;;;;;;;16.92;12.70;;;11.60;78.70;;;;;;5079474;28;20081;-84
2021/11/21 12:37:10;;;;;;;17.95;13.13;;;11.60;78.70;;;;;;5079416;28;20035;-85
2021/11/21 12:39:38;;;;;;;18.27;12.85;;;11.50;78.70;;;;;;5079431;28;20111;-86